sensor_id;sensor_type;location;lat;lon;timestamp;P1;durP1;ratioP1;P2;durP2;ratioP2
65477;SDS011;53678;39.642;22.430;2023-06-04T00:02:02;11.70;;;4.13;;
65477;SDS011;53678;39.642;22.430;2023-06-04T00:04:28;11.30;;;4.53;;
65477;SDS011;53678;39.642;22.430;2023-06-04T00:06:54;9.40;;;4.22;;
65477;SDS011;53678;39.642;22.430;2023-06-04T00:09:19;11.73;;;4.70;;
65477;SDS011;53678;39.642;22.430;2023-06-04T00:11:45;9.35;;;4.80;;
65477;SDS011;53678;39.642;22.430;2023-06-04T00:14:11;5.72;;;4.15;;
65477;SDS011;53678;39.642;22.430;2023-06-04T00:16:38;8.02;;;4.20;;
65477;SDS011;53678;39.642;22.430;2023-06-04T00:19:03;9.45;;;4.43;;
65477;SDS011;53678;39.642;22.430;2023-06-04T00:21:29;14.13;;;4.65;;
65477;SDS011;53678;39.642;22.430;2023-06-04T00:23:55;13.05;;;4.90;;
65477;SDS011;53678;39.642;22.430;2023-06-04T00:26:21;6.82;;;4.55;;
65477;SDS011;53678;39.642;22.430;2023-06-04T00:28:47;7.60;;;4.65;;
65477;SDS011;53678;39.642;22.430;2023-06-04T00:31:13;9.32;;;4.32;;
65477;SDS011;53678;39.642;22.430;2023-06-04T00:33:40;6.93;;;4.10;;
65477;SDS011;53678;39.642;22.430;2023-06-04T00:36:07;9.73;;;4.82;;
65477;SDS011;53678;39.642;22.430;2023-06-04T00:38:32;7.63;;;4.10;;
65477;SDS011;53678;39.642;22.430;2023-06-04T00:40:58;9.07;;;3.80;;
65477;SDS011;53678;39.642;22.430;2023-06-04T00:43:24;9.38;;;4.18;;
65477;SDS011;53678;39.642;22.430;2023-06-04T00:45:52;7.90;;;4.07;;
65477;SDS011;53678;39.642;22.430;2023-06-04T00:48:19;10.27;;;4.03;;
65477;SDS011;53678;39.642;22.430;2023-06-04T00:50:49;8.00;;;4.13;;
65477;SDS011;53678;39.642;22.430;2023-06-04T00:53:16;6.03;;;3.50;;
65477;SDS011;53678;39.642;22.430;2023-06-04T00:55:42;11.35;;;4.38;;
65477;SDS011;53678;39.642;22.430;2023-06-04T00:58:08;8.93;;;3.63;;
65477;SDS011;53678;39.642;22.430;2023-06-04T01:00:35;7.10;;;3.83;;
65477;SDS011;53678;39.642;22.430;2023-06-04T01:03:03;8.60;;;3.80;;
65477;SDS011;53678;39.642;22.430;2023-06-04T01:05:42;7.50;;;4.35;;
65477;SDS011;53678;39.642;22.430;2023-06-04T01:08:13;7.10;;;3.92;;
65477;SDS011;53678;39.642;22.430;2023-06-04T01:10:55;11.30;;;3.95;;
65477;SDS011;53678;39.642;22.430;2023-06-04T01:13:22;9.00;;;3.83;;
65477;SDS011;53678;39.642;22.430;2023-06-04T01:15:49;6.63;;;3.95;;
65477;SDS011;53678;39.642;22.430;2023-06-04T01:18:15;8.45;;;3.53;;
65477;SDS011;53678;39.642;22.430;2023-06-04T01:20:59;6.80;;;3.80;;
65477;SDS011;53678;39.642;22.430;2023-06-04T01:23:36;5.53;;;3.65;;
65477;SDS011;53678;39.642;22.430;2023-06-04T01:26:11;8.00;;;3.70;;
65477;SDS011;53678;39.642;22.430;2023-06-04T01:28:38;8.48;;;3.63;;
65477;SDS011;53678;39.642;22.430;2023-06-04T01:31:06;5.15;;;4.20;;
65477;SDS011;53678;39.642;22.430;2023-06-04T01:33:35;10.95;;;5.20;;
65477;SDS011;53678;39.642;22.430;2023-06-04T01:36:01;13.73;;;5.85;;
65477;SDS011;53678;39.642;22.430;2023-06-04T01:38:27;10.65;;;5.22;;
65477;SDS011;53678;39.642;22.430;2023-06-04T01:40:53;10.07;;;6.10;;
65477;SDS011;53678;39.642;22.430;2023-06-04T01:43:27;7.93;;;5.03;;
65477;SDS011;53678;39.642;22.430;2023-06-04T01:45:53;10.45;;;5.55;;
65477;SDS011;53678;39.642;22.430;2023-06-04T01:48:21;9.60;;;4.95;;
65477;SDS011;53678;39.642;22.430;2023-06-04T01:50:47;9.00;;;5.10;;
65477;SDS011;53678;39.642;22.430;2023-06-04T01:53:13;10.27;;;5.70;;
65477;SDS011;53678;39.642;22.430;2023-06-04T01:55:39;7.43;;;5.05;;
65477;SDS011;53678;39.642;22.430;2023-06-04T01:58:05;8.05;;;5.32;;
65477;SDS011;53678;39.642;22.430;2023-06-04T02:00:32;10.32;;;6.22;;
65477;SDS011;53678;39.642;22.430;2023-06-04T02:02:59;8.75;;;5.55;;
65477;SDS011;53678;39.642;22.430;2023-06-04T02:05:25;11.30;;;6.13;;
65477;SDS011;53678;39.642;22.430;2023-06-04T02:07:51;11.65;;;5.80;;
65477;SDS011;53678;39.642;22.430;2023-06-04T02:10:18;10.93;;;5.43;;
65477;SDS011;53678;39.642;22.430;2023-06-04T02:13:02;13.93;;;6.55;;
65477;SDS011;53678;39.642;22.430;2023-06-04T02:15:28;11.13;;;5.82;;
65477;SDS011;53678;39.642;22.430;2023-06-04T02:17:57;13.48;;;5.97;;
65477;SDS011;53678;39.642;22.430;2023-06-04T02:20:27;13.20;;;6.07;;
65477;SDS011;53678;39.642;22.430;2023-06-04T02:22:56;8.35;;;5.22;;
65477;SDS011;53678;39.642;22.430;2023-06-04T02:25:22;9.63;;;6.25;;
65477;SDS011;53678;39.642;22.430;2023-06-04T02:27:48;10.13;;;6.53;;
65477;SDS011;53678;39.642;22.430;2023-06-04T02:30:14;8.43;;;5.65;;
65477;SDS011;53678;39.642;22.430;2023-06-04T02:32:42;10.45;;;5.85;;
65477;SDS011;53678;39.642;22.430;2023-06-04T02:35:10;9.27;;;5.65;;
65477;SDS011;53678;39.642;22.430;2023-06-04T02:37:36;11.13;;;6.35;;
65477;SDS011;53678;39.642;22.430;2023-06-04T02:40:02;12.43;;;6.05;;
65477;SDS011;53678;39.642;22.430;2023-06-04T02:42:29;9.80;;;5.57;;
65477;SDS011;53678;39.642;22.430;2023-06-04T02:44:54;10.13;;;5.80;;
65477;SDS011;53678;39.642;22.430;2023-06-04T02:47:20;15.20;;;6.18;;
65477;SDS011;53678;39.642;22.430;2023-06-04T02:49:46;11.77;;;5.90;;
65477;SDS011;53678;39.642;22.430;2023-06-04T02:52:12;11.43;;;5.80;;
65477;SDS011;53678;39.642;22.430;2023-06-04T02:54:37;10.18;;;6.22;;
65477;SDS011;53678;39.642;22.430;2023-06-04T02:57:03;11.32;;;5.40;;
65477;SDS011;53678;39.642;22.430;2023-06-04T02:59:31;10.85;;;6.38;;
65477;SDS011;53678;39.642;22.430;2023-06-04T03:01:58;10.95;;;5.68;;
65477;SDS011;53678;39.642;22.430;2023-06-04T03:04:23;12.88;;;5.95;;
65477;SDS011;53678;39.642;22.430;2023-06-04T03:06:51;14.13;;;6.40;;
65477;SDS011;53678;39.642;22.430;2023-06-04T03:09:23;11.45;;;5.75;;
65477;SDS011;53678;39.642;22.430;2023-06-04T03:11:48;9.02;;;5.72;;
65477;SDS011;53678;39.642;22.430;2023-06-04T03:14:14;11.27;;;5.70;;
65477;SDS011;53678;39.642;22.430;2023-06-04T03:16:41;7.97;;;5.03;;
65477;SDS011;53678;39.642;22.430;2023-06-04T03:19:07;8.98;;;5.72;;
65477;SDS011;53678;39.642;22.430;2023-06-04T03:21:33;10.05;;;5.55;;
65477;SDS011;53678;39.642;22.430;2023-06-04T03:24:00;12.98;;;6.53;;
65477;SDS011;53678;39.642;22.430;2023-06-04T03:26:26;10.85;;;6.47;;
65477;SDS011;53678;39.642;22.430;2023-06-04T03:28:52;8.95;;;6.53;;
65477;SDS011;53678;39.642;22.430;2023-06-04T03:31:19;10.88;;;6.55;;
65477;SDS011;53678;39.642;22.430;2023-06-04T03:33:45;12.57;;;6.15;;
65477;SDS011;53678;39.642;22.430;2023-06-04T03:36:10;11.55;;;6.55;;
65477;SDS011;53678;39.642;22.430;2023-06-04T03:38:36;8.90;;;6.15;;
65477;SDS011;53678;39.642;22.430;2023-06-04T03:41:02;9.50;;;6.50;;
65477;SDS011;53678;39.642;22.430;2023-06-04T03:43:28;13.68;;;6.05;;
65477;SDS011;53678;39.642;22.430;2023-06-04T03:45:58;11.02;;;5.95;;
65477;SDS011;53678;39.642;22.430;2023-06-04T03:48:24;8.93;;;6.25;;
65477;SDS011;53678;39.642;22.430;2023-06-04T03:50:50;9.73;;;6.82;;
65477;SDS011;53678;39.642;22.430;2023-06-04T03:53:16;12.43;;;6.47;;
65477;SDS011;53678;39.642;22.430;2023-06-04T03:55:42;8.65;;;6.28;;
65477;SDS011;53678;39.642;22.430;2023-06-04T03:58:08;9.68;;;5.45;;
65477;SDS011;53678;39.642;22.430;2023-06-04T04:00:38;8.60;;;5.43;;
65477;SDS011;53678;39.642;22.430;2023-06-04T04:03:06;10.38;;;5.97;;
65477;SDS011;53678;39.642;22.430;2023-06-04T04:05:33;10.82;;;5.40;;
65477;SDS011;53678;39.642;22.430;2023-06-04T04:07:59;9.38;;;5.15;;
65477;SDS011;53678;39.642;22.430;2023-06-04T04:10:28;7.85;;;5.63;;
65477;SDS011;53678;39.642;22.430;2023-06-04T04:12:55;7.20;;;5.03;;
65477;SDS011;53678;39.642;22.430;2023-06-04T04:15:23;10.85;;;5.25;;
65477;SDS011;53678;39.642;22.430;2023-06-04T04:17:51;8.05;;;4.55;;
65477;SDS011;53678;39.642;22.430;2023-06-04T04:20:17;10.32;;;5.20;;
65477;SDS011;53678;39.642;22.430;2023-06-04T04:22:49;7.75;;;4.55;;
65477;SDS011;53678;39.642;22.430;2023-06-04T04:25:16;18.08;;;5.45;;
65477;SDS011;53678;39.642;22.430;2023-06-04T04:27:41;7.68;;;4.63;;
65477;SDS011;53678;39.642;22.430;2023-06-04T04:30:10;5.93;;;4.38;;
65477;SDS011;53678;39.642;22.430;2023-06-04T04:32:41;9.15;;;4.93;;
65477;SDS011;53678;39.642;22.430;2023-06-04T04:35:17;7.32;;;4.50;;
65477;SDS011;53678;39.642;22.430;2023-06-04T04:37:45;6.20;;;4.88;;
65477;SDS011;53678;39.642;22.430;2023-06-04T04:40:12;8.23;;;5.10;;
65477;SDS011;53678;39.642;22.430;2023-06-04T04:42:43;8.10;;;5.13;;
65477;SDS011;53678;39.642;22.430;2023-06-04T04:45:11;9.13;;;5.65;;
65477;SDS011;53678;39.642;22.430;2023-06-04T04:47:38;11.43;;;5.95;;
65477;SDS011;53678;39.642;22.430;2023-06-04T04:50:04;11.02;;;5.72;;
65477;SDS011;53678;39.642;22.430;2023-06-04T04:52:30;10.52;;;6.10;;
65477;SDS011;53678;39.642;22.430;2023-06-04T04:54:56;10.43;;;7.55;;
65477;SDS011;53678;39.642;22.430;2023-06-04T04:57:26;10.07;;;5.90;;
65477;SDS011;53678;39.642;22.430;2023-06-04T04:59:54;8.88;;;5.63;;
65477;SDS011;53678;39.642;22.430;2023-06-04T05:02:20;8.93;;;5.40;;
65477;SDS011;53678;39.642;22.430;2023-06-04T05:04:47;11.00;;;5.78;;
65477;SDS011;53678;39.642;22.430;2023-06-04T05:07:14;10.82;;;6.65;;
65477;SDS011;53678;39.642;22.430;2023-06-04T05:09:41;8.75;;;5.10;;
65477;SDS011;53678;39.642;22.430;2023-06-04T05:12:07;7.57;;;5.47;;
65477;SDS011;53678;39.642;22.430;2023-06-04T05:14:34;9.73;;;5.22;;
65477;SDS011;53678;39.642;22.430;2023-06-04T05:17:03;8.10;;;5.95;;
65477;SDS011;53678;39.642;22.430;2023-06-04T05:19:29;9.48;;;5.80;;
65477;SDS011;53678;39.642;22.430;2023-06-04T05:21:59;11.13;;;5.57;;
65477;SDS011;53678;39.642;22.430;2023-06-04T05:24:27;7.97;;;5.38;;
65477;SDS011;53678;39.642;22.430;2023-06-04T05:26:56;8.45;;;5.82;;
65477;SDS011;53678;39.642;22.430;2023-06-04T05:29:23;9.40;;;6.03;;
65477;SDS011;53678;39.642;22.430;2023-06-04T05:31:49;7.22;;;5.22;;
65477;SDS011;53678;39.642;22.430;2023-06-04T05:34:18;7.28;;;4.53;;
65477;SDS011;53678;39.642;22.430;2023-06-04T05:36:46;7.85;;;4.78;;
65477;SDS011;53678;39.642;22.430;2023-06-04T05:39:12;7.07;;;4.38;;
65477;SDS011;53678;39.642;22.430;2023-06-04T05:42:02;5.75;;;4.05;;
65477;SDS011;53678;39.642;22.430;2023-06-04T05:44:28;7.93;;;4.80;;
65477;SDS011;53678;39.642;22.430;2023-06-04T05:46:54;7.90;;;5.03;;
65477;SDS011;53678;39.642;22.430;2023-06-04T05:49:21;10.65;;;4.65;;
65477;SDS011;53678;39.642;22.430;2023-06-04T05:51:51;7.00;;;3.95;;
65477;SDS011;53678;39.642;22.430;2023-06-04T05:54:17;5.72;;;3.92;;
65477;SDS011;53678;39.642;22.430;2023-06-04T05:56:43;7.03;;;4.22;;
65477;SDS011;53678;39.642;22.430;2023-06-04T05:59:09;5.22;;;3.78;;
65477;SDS011;53678;39.642;22.430;2023-06-04T06:01:35;6.97;;;4.15;;
65477;SDS011;53678;39.642;22.430;2023-06-04T06:04:01;7.90;;;4.20;;
65477;SDS011;53678;39.642;22.430;2023-06-04T06:06:29;9.68;;;4.15;;
65477;SDS011;53678;39.642;22.430;2023-06-04T06:08:55;7.20;;;3.92;;
65477;SDS011;53678;39.642;22.430;2023-06-04T06:11:21;7.45;;;4.05;;
65477;SDS011;53678;39.642;22.430;2023-06-04T06:13:47;11.68;;;4.68;;
65477;SDS011;53678;39.642;22.430;2023-06-04T06:16:14;6.75;;;3.50;;
65477;SDS011;53678;39.642;22.430;2023-06-04T06:18:42;8.50;;;4.43;;
65477;SDS011;53678;39.642;22.430;2023-06-04T06:21:08;4.63;;;3.80;;
65477;SDS011;53678;39.642;22.430;2023-06-04T06:23:34;5.22;;;3.85;;
65477;SDS011;53678;39.642;22.430;2023-06-04T06:26:01;6.85;;;4.05;;
65477;SDS011;53678;39.642;22.430;2023-06-04T06:28:37;7.03;;;4.13;;
65477;SDS011;53678;39.642;22.430;2023-06-04T06:31:03;7.60;;;4.60;;
65477;SDS011;53678;39.642;22.430;2023-06-04T06:33:29;6.93;;;3.45;;
65477;SDS011;53678;39.642;22.430;2023-06-04T06:35:56;7.28;;;3.92;;
65477;SDS011;53678;39.642;22.430;2023-06-04T06:38:25;7.57;;;4.30;;
65477;SDS011;53678;39.642;22.430;2023-06-04T06:40:52;8.05;;;3.92;;
65477;SDS011;53678;39.642;22.430;2023-06-04T06:43:17;6.50;;;3.75;;
65477;SDS011;53678;39.642;22.430;2023-06-04T06:45:43;5.70;;;4.28;;
65477;SDS011;53678;39.642;22.430;2023-06-04T06:48:09;8.80;;;4.07;;
65477;SDS011;53678;39.642;22.430;2023-06-04T06:50:35;7.28;;;4.10;;
65477;SDS011;53678;39.642;22.430;2023-06-04T06:53:03;8.80;;;4.97;;
65477;SDS011;53678;39.642;22.430;2023-06-04T06:55:29;9.88;;;4.50;;
65477;SDS011;53678;39.642;22.430;2023-06-04T06:57:56;6.80;;;4.35;;
65477;SDS011;53678;39.642;22.430;2023-06-04T07:00:21;8.15;;;4.25;;
65477;SDS011;53678;39.642;22.430;2023-06-04T07:02:48;6.35;;;4.30;;
65477;SDS011;53678;39.642;22.430;2023-06-04T07:05:13;7.03;;;3.80;;
65477;SDS011;53678;39.642;22.430;2023-06-04T07:07:43;8.00;;;3.78;;
65477;SDS011;53678;39.642;22.430;2023-06-04T07:10:09;8.43;;;4.50;;
65477;SDS011;53678;39.642;22.430;2023-06-04T07:12:35;8.95;;;4.22;;
65477;SDS011;53678;39.642;22.430;2023-06-04T07:15:00;7.22;;;4.35;;
65477;SDS011;53678;39.642;22.430;2023-06-04T07:17:26;7.22;;;4.40;;
65477;SDS011;53678;39.642;22.430;2023-06-04T07:19:53;5.63;;;3.60;;
65477;SDS011;53678;39.642;22.430;2023-06-04T07:22:20;9.13;;;4.53;;
65477;SDS011;53678;39.642;22.430;2023-06-04T07:24:46;6.40;;;4.15;;
65477;SDS011;53678;39.642;22.430;2023-06-04T07:27:12;5.90;;;3.95;;
65477;SDS011;53678;39.642;22.430;2023-06-04T07:29:39;5.90;;;3.67;;
65477;SDS011;53678;39.642;22.430;2023-06-04T07:32:05;4.47;;;3.20;;
65477;SDS011;53678;39.642;22.430;2023-06-04T07:34:31;5.50;;;3.53;;
65477;SDS011;53678;39.642;22.430;2023-06-04T07:36:57;5.45;;;3.38;;
65477;SDS011;53678;39.642;22.430;2023-06-04T07:39:23;6.18;;;3.78;;
65477;SDS011;53678;39.642;22.430;2023-06-04T07:41:49;7.18;;;3.35;;
65477;SDS011;53678;39.642;22.430;2023-06-04T07:44:16;7.90;;;3.75;;
65477;SDS011;53678;39.642;22.430;2023-06-04T07:46:42;5.30;;;3.08;;
65477;SDS011;53678;39.642;22.430;2023-06-04T07:49:09;5.50;;;3.28;;
65477;SDS011;53678;39.642;22.430;2023-06-04T07:51:34;5.47;;;3.47;;
65477;SDS011;53678;39.642;22.430;2023-06-04T07:54:00;5.75;;;3.08;;
65477;SDS011;53678;39.642;22.430;2023-06-04T07:56:27;4.45;;;2.90;;
65477;SDS011;53678;39.642;22.430;2023-06-04T07:58:53;4.90;;;2.97;;
65477;SDS011;53678;39.642;22.430;2023-06-04T08:01:18;4.43;;;3.15;;
65477;SDS011;53678;39.642;22.430;2023-06-04T08:03:45;7.68;;;3.03;;
65477;SDS011;53678;39.642;22.430;2023-06-04T08:06:11;6.95;;;3.08;;
65477;SDS011;53678;39.642;22.430;2023-06-04T08:08:43;5.82;;;2.90;;
65477;SDS011;53678;39.642;22.430;2023-06-04T08:11:15;5.30;;;3.10;;
65477;SDS011;53678;39.642;22.430;2023-06-04T08:13:41;5.32;;;3.00;;
65477;SDS011;53678;39.642;22.430;2023-06-04T08:16:07;8.48;;;2.92;;
65477;SDS011;53678;39.642;22.430;2023-06-04T08:18:41;4.30;;;2.70;;
65477;SDS011;53678;39.642;22.430;2023-06-04T08:21:08;3.70;;;2.72;;
65477;SDS011;53678;39.642;22.430;2023-06-04T08:23:36;5.28;;;2.70;;
65477;SDS011;53678;39.642;22.430;2023-06-04T08:26:01;4.03;;;2.80;;
65477;SDS011;53678;39.642;22.430;2023-06-04T08:28:27;5.13;;;2.92;;
65477;SDS011;53678;39.642;22.430;2023-06-04T08:30:53;4.68;;;3.05;;
65477;SDS011;53678;39.642;22.430;2023-06-04T08:33:18;4.65;;;2.88;;
65477;SDS011;53678;39.642;22.430;2023-06-04T08:35:44;4.63;;;3.05;;
65477;SDS011;53678;39.642;22.430;2023-06-04T08:38:10;5.25;;;3.00;;
65477;SDS011;53678;39.642;22.430;2023-06-04T08:40:36;4.20;;;3.10;;
65477;SDS011;53678;39.642;22.430;2023-06-04T08:43:01;7.00;;;2.90;;
65477;SDS011;53678;39.642;22.430;2023-06-04T08:45:28;5.70;;;2.58;;
65477;SDS011;53678;39.642;22.430;2023-06-04T08:47:59;4.30;;;2.92;;
65477;SDS011;53678;39.642;22.430;2023-06-04T08:50:26;5.30;;;3.25;;
65477;SDS011;53678;39.642;22.430;2023-06-04T08:52:52;5.20;;;3.25;;
65477;SDS011;53678;39.642;22.430;2023-06-04T08:55:23;6.07;;;3.00;;
65477;SDS011;53678;39.642;22.430;2023-06-04T08:57:49;5.72;;;3.17;;
65477;SDS011;53678;39.642;22.430;2023-06-04T09:00:17;4.32;;;2.90;;
65477;SDS011;53678;39.642;22.430;2023-06-04T09:02:44;4.15;;;2.80;;
65477;SDS011;53678;39.642;22.430;2023-06-04T09:05:14;6.00;;;2.88;;
65477;SDS011;53678;39.642;22.430;2023-06-04T09:07:45;6.00;;;2.95;;
65477;SDS011;53678;39.642;22.430;2023-06-04T09:10:12;5.88;;;3.38;;
65477;SDS011;53678;39.642;22.430;2023-06-04T09:12:43;7.13;;;3.45;;
65477;SDS011;53678;39.642;22.430;2023-06-04T09:15:11;7.45;;;3.85;;
65477;SDS011;53678;39.642;22.430;2023-06-04T09:17:37;6.05;;;3.20;;
65477;SDS011;53678;39.642;22.430;2023-06-04T09:20:04;4.60;;;3.00;;
65477;SDS011;53678;39.642;22.430;2023-06-04T09:22:37;9.52;;;3.20;;
65477;SDS011;53678;39.642;22.430;2023-06-04T09:25:04;4.60;;;3.22;;
65477;SDS011;53678;39.642;22.430;2023-06-04T09:27:39;4.47;;;3.65;;
65477;SDS011;53678;39.642;22.430;2023-06-04T09:30:06;6.18;;;3.85;;
65477;SDS011;53678;39.642;22.430;2023-06-04T09:32:34;5.22;;;4.05;;
65477;SDS011;53678;39.642;22.430;2023-06-04T09:35:10;6.35;;;4.78;;
65477;SDS011;53678;39.642;22.430;2023-06-04T09:37:51;6.63;;;5.05;;
65477;SDS011;53678;39.642;22.430;2023-06-04T09:40:21;10.75;;;3.60;;
65477;SDS011;53678;39.642;22.430;2023-06-04T09:42:47;10.07;;;7.00;;
65477;SDS011;53678;39.642;22.430;2023-06-04T09:45:28;5.43;;;3.30;;
65477;SDS011;53678;39.642;22.430;2023-06-04T09:47:58;5.57;;;3.35;;
65477;SDS011;53678;39.642;22.430;2023-06-04T09:50:30;5.53;;;3.15;;
65477;SDS011;53678;39.642;22.430;2023-06-04T09:52:58;5.13;;;3.10;;
65477;SDS011;53678;39.642;22.430;2023-06-04T09:55:25;7.03;;;3.13;;
65477;SDS011;53678;39.642;22.430;2023-06-04T09:57:51;8.48;;;4.53;;
65477;SDS011;53678;39.642;22.430;2023-06-04T10:00:18;7.53;;;3.50;;
65477;SDS011;53678;39.642;22.430;2023-06-04T10:02:46;5.07;;;3.50;;
65477;SDS011;53678;39.642;22.430;2023-06-04T10:05:13;7.15;;;3.20;;
65477;SDS011;53678;39.642;22.430;2023-06-04T10:07:41;5.70;;;3.97;;
65477;SDS011;53678;39.642;22.430;2023-06-04T10:10:09;4.28;;;2.88;;
65477;SDS011;53678;39.642;22.430;2023-06-04T10:12:39;4.72;;;3.50;;
65477;SDS011;53678;39.642;22.430;2023-06-04T10:15:07;7.38;;;3.42;;
65477;SDS011;53678;39.642;22.430;2023-06-04T10:17:38;6.68;;;3.03;;
65477;SDS011;53678;39.642;22.430;2023-06-04T10:20:04;6.60;;;3.60;;
65477;SDS011;53678;39.642;22.430;2023-06-04T10:22:33;6.38;;;3.10;;
65477;SDS011;53678;39.642;22.430;2023-06-04T10:25:00;4.43;;;3.20;;
65477;SDS011;53678;39.642;22.430;2023-06-04T10:27:30;4.25;;;3.30;;
65477;SDS011;53678;39.642;22.430;2023-06-04T10:29:57;8.38;;;4.30;;
65477;SDS011;53678;39.642;22.430;2023-06-04T10:32:26;8.55;;;3.25;;
65477;SDS011;53678;39.642;22.430;2023-06-04T10:34:55;10.25;;;5.05;;
65477;SDS011;53678;39.642;22.430;2023-06-04T10:37:26;7.35;;;3.08;;
65477;SDS011;53678;39.642;22.430;2023-06-04T10:39:52;6.45;;;3.33;;
65477;SDS011;53678;39.642;22.430;2023-06-04T10:42:19;8.70;;;4.55;;
65477;SDS011;53678;39.642;22.430;2023-06-04T10:44:53;4.53;;;3.25;;
65477;SDS011;53678;39.642;22.430;2023-06-04T10:47:26;5.07;;;2.78;;
65477;SDS011;53678;39.642;22.430;2023-06-04T10:52:19;3.67;;;2.67;;
65477;SDS011;53678;39.642;22.430;2023-06-04T10:54:46;5.03;;;3.63;;
65477;SDS011;53678;39.642;22.430;2023-06-04T10:57:18;10.18;;;4.93;;
65477;SDS011;53678;39.642;22.430;2023-06-04T10:59:57;4.78;;;2.75;;
65477;SDS011;53678;39.642;22.430;2023-06-04T11:02:24;7.00;;;3.33;;
65477;SDS011;53678;39.642;22.430;2023-06-04T11:05:03;7.25;;;3.13;;
65477;SDS011;53678;39.642;22.430;2023-06-04T11:07:41;3.95;;;2.72;;
65477;SDS011;53678;39.642;22.430;2023-06-04T11:10:11;5.43;;;3.47;;
65477;SDS011;53678;39.642;22.430;2023-06-04T11:12:41;15.27;;;11.20;;
65477;SDS011;53678;39.642;22.430;2023-06-04T11:15:10;5.30;;;2.60;;
65477;SDS011;53678;39.642;22.430;2023-06-04T11:17:36;4.93;;;2.78;;
65477;SDS011;53678;39.642;22.430;2023-06-04T11:20:02;6.93;;;2.90;;
65477;SDS011;53678;39.642;22.430;2023-06-04T11:22:31;6.43;;;3.65;;
65477;SDS011;53678;39.642;22.430;2023-06-04T11:24:59;4.97;;;2.88;;
65477;SDS011;53678;39.642;22.430;2023-06-04T11:27:28;4.47;;;2.85;;
65477;SDS011;53678;39.642;22.430;2023-06-04T11:29:59;7.50;;;3.25;;
65477;SDS011;53678;39.642;22.430;2023-06-04T11:32:25;5.50;;;2.90;;
65477;SDS011;53678;39.642;22.430;2023-06-04T11:35:01;4.30;;;2.70;;
65477;SDS011;53678;39.642;22.430;2023-06-04T11:37:28;3.85;;;2.70;;
65477;SDS011;53678;39.642;22.430;2023-06-04T11:39:57;5.05;;;2.80;;
65477;SDS011;53678;39.642;22.430;2023-06-04T11:42:23;4.65;;;3.45;;
65477;SDS011;53678;39.642;22.430;2023-06-04T11:44:55;7.80;;;3.22;;
65477;SDS011;53678;39.642;22.430;2023-06-04T11:47:23;3.63;;;2.67;;
65477;SDS011;53678;39.642;22.430;2023-06-04T11:49:55;7.85;;;3.40;;
65477;SDS011;53678;39.642;22.430;2023-06-04T11:52:22;5.60;;;2.55;;
65477;SDS011;53678;39.642;22.430;2023-06-04T11:54:48;4.40;;;3.05;;
65477;SDS011;53678;39.642;22.430;2023-06-04T11:57:16;3.35;;;2.42;;
65477;SDS011;53678;39.642;22.430;2023-06-04T11:59:42;3.60;;;2.33;;
65477;SDS011;53678;39.642;22.430;2023-06-04T12:02:08;4.93;;;2.25;;
65477;SDS011;53678;39.642;22.430;2023-06-04T12:04:33;6.53;;;2.85;;
65477;SDS011;53678;39.642;22.430;2023-06-04T12:07:00;4.55;;;2.95;;
65477;SDS011;53678;39.642;22.430;2023-06-04T12:09:31;4.57;;;2.70;;
65477;SDS011;53678;39.642;22.430;2023-06-04T12:12:03;5.10;;;2.65;;
65477;SDS011;53678;39.642;22.430;2023-06-04T12:14:31;6.85;;;3.15;;
65477;SDS011;53678;39.642;22.430;2023-06-04T12:19:27;4.55;;;3.17;;
65477;SDS011;53678;39.642;22.430;2023-06-04T12:21:59;3.70;;;2.90;;
65477;SDS011;53678;39.642;22.430;2023-06-04T12:24:35;4.25;;;2.72;;
65477;SDS011;53678;39.642;22.430;2023-06-04T12:27:18;4.57;;;2.80;;
65477;SDS011;53678;39.642;22.430;2023-06-04T12:32:26;3.88;;;2.75;;
65477;SDS011;53678;39.642;22.430;2023-06-04T12:34:53;5.88;;;2.80;;
65477;SDS011;53678;39.642;22.430;2023-06-04T12:37:21;4.40;;;2.85;;
65477;SDS011;53678;39.642;22.430;2023-06-04T12:39:47;4.13;;;2.80;;
65477;SDS011;53678;39.642;22.430;2023-06-04T12:42:13;5.25;;;2.70;;
65477;SDS011;53678;39.642;22.430;2023-06-04T12:44:39;4.85;;;2.70;;
65477;SDS011;53678;39.642;22.430;2023-06-04T12:47:06;8.63;;;2.90;;
65477;SDS011;53678;39.642;22.430;2023-06-04T12:49:36;6.38;;;3.10;;
65477;SDS011;53678;39.642;22.430;2023-06-04T12:52:03;5.85;;;3.00;;
65477;SDS011;53678;39.642;22.430;2023-06-04T12:54:29;3.80;;;3.00;;
65477;SDS011;53678;39.642;22.430;2023-06-04T12:56:55;4.45;;;2.90;;
65477;SDS011;53678;39.642;22.430;2023-06-04T12:59:22;4.18;;;2.83;;
65477;SDS011;53678;39.642;22.430;2023-06-04T13:01:49;5.10;;;2.70;;
65477;SDS011;53678;39.642;22.430;2023-06-04T13:04:15;6.03;;;3.17;;
65477;SDS011;53678;39.642;22.430;2023-06-04T13:06:40;6.63;;;2.80;;
65477;SDS011;53678;39.642;22.430;2023-06-04T13:09:06;4.72;;;2.63;;
65477;SDS011;53678;39.642;22.430;2023-06-04T13:11:43;4.63;;;2.78;;
65477;SDS011;53678;39.642;22.430;2023-06-04T13:14:09;3.88;;;2.75;;
65477;SDS011;53678;39.642;22.430;2023-06-04T13:16:35;4.85;;;2.85;;
65477;SDS011;53678;39.642;22.430;2023-06-04T13:19:02;5.53;;;2.90;;
65477;SDS011;53678;39.642;22.430;2023-06-04T13:21:29;4.47;;;2.90;;
65477;SDS011;53678;39.642;22.430;2023-06-04T13:23:55;5.30;;;3.13;;
65477;SDS011;53678;39.642;22.430;2023-06-04T13:26:21;5.22;;;3.08;;
65477;SDS011;53678;39.642;22.430;2023-06-04T13:28:48;5.45;;;2.67;;
65477;SDS011;53678;39.642;22.430;2023-06-04T13:31:13;5.90;;;3.00;;
65477;SDS011;53678;39.642;22.430;2023-06-04T13:33:39;5.18;;;3.10;;
65477;SDS011;53678;39.642;22.430;2023-06-04T13:36:06;5.03;;;2.97;;
65477;SDS011;53678;39.642;22.430;2023-06-04T13:38:32;5.22;;;3.03;;
65477;SDS011;53678;39.642;22.430;2023-06-04T13:40:58;4.88;;;2.90;;
65477;SDS011;53678;39.642;22.430;2023-06-04T13:43:24;4.30;;;2.90;;
65477;SDS011;53678;39.642;22.430;2023-06-04T13:45:49;7.00;;;3.60;;
65477;SDS011;53678;39.642;22.430;2023-06-04T13:48:15;6.03;;;2.97;;
65477;SDS011;53678;39.642;22.430;2023-06-04T13:50:42;5.82;;;3.00;;
65477;SDS011;53678;39.642;22.430;2023-06-04T13:53:09;6.88;;;2.67;;
65477;SDS011;53678;39.642;22.430;2023-06-04T13:55:35;5.80;;;3.40;;
65477;SDS011;53678;39.642;22.430;2023-06-04T13:58:00;4.40;;;2.50;;
65477;SDS011;53678;39.642;22.430;2023-06-04T14:00:26;6.63;;;2.80;;
65477;SDS011;53678;39.642;22.430;2023-06-04T14:02:52;6.80;;;2.80;;
65477;SDS011;53678;39.642;22.430;2023-06-04T14:05:20;5.47;;;2.60;;
65477;SDS011;53678;39.642;22.430;2023-06-04T14:07:46;4.38;;;3.17;;
65477;SDS011;53678;39.642;22.430;2023-06-04T14:10:12;5.80;;;2.67;;
65477;SDS011;53678;39.642;22.430;2023-06-04T14:12:38;4.82;;;2.80;;
65477;SDS011;53678;39.642;22.430;2023-06-04T14:15:09;5.90;;;2.47;;
65477;SDS011;53678;39.642;22.430;2023-06-04T14:17:40;4.13;;;2.90;;
65477;SDS011;53678;39.642;22.430;2023-06-04T14:20:06;5.55;;;2.95;;
65477;SDS011;53678;39.642;22.430;2023-06-04T14:22:36;6.13;;;2.90;;
65477;SDS011;53678;39.642;22.430;2023-06-04T14:25:06;4.35;;;2.47;;
65477;SDS011;53678;39.642;22.430;2023-06-04T14:27:34;6.38;;;3.15;;
65477;SDS011;53678;39.642;22.430;2023-06-04T14:30:01;6.47;;;2.85;;
65477;SDS011;53678;39.642;22.430;2023-06-04T14:32:29;10.35;;;3.42;;
65477;SDS011;53678;39.642;22.430;2023-06-04T14:34:55;7.43;;;2.90;;
65477;SDS011;53678;39.642;22.430;2023-06-04T14:37:33;4.97;;;2.55;;
65477;SDS011;53678;39.642;22.430;2023-06-04T14:39:58;9.57;;;3.28;;
65477;SDS011;53678;39.642;22.430;2023-06-04T14:42:24;5.15;;;3.22;;